sensor_id;sensor_type;location;lat;lon;timestamp;P1;P2;P0
79141;PMS5003;68550;-26.480;29.234;2023-08-24T00:01:22;40;38;
79141;PMS5003;68550;-26.480;29.234;2023-08-24T00:03:46;39;36;
79141;PMS5003;68550;-26.480;29.234;2023-08-24T00:06:12;35;34;
79141;PMS5003;68550;-26.480;29.234;2023-08-24T00:08:37;41;40;
79141;PMS5003;68550;-26.480;29.234;2023-08-24T00:11:02;32;32;
79141;PMS5003;68550;-26.480;29.234;2023-08-24T00:13:28;34;33;
79141;PMS5003;68550;-26.480;29.234;2023-08-24T00:15:54;38;38;
79141;PMS5003;68550;-26.480;29.234;2023-08-24T00:18:19;42;38;
79141;PMS5003;68550;-26.480;29.234;2023-08-24T00:20:44;33;33;
79141;PMS5003;68550;-26.480;29.234;2023-08-24T00:23:09;34;33;
79141;PMS5003;68550;-26.480;29.234;2023-08-24T00:25:35;39;38;
79141;PMS5003;68550;-26.480;29.234;2023-08-24T00:28:02;35;35;
79141;PMS5003;68550;-26.480;29.234;2023-08-24T00:30:26;33;33;
79141;PMS5003;68550;-26.480;29.234;2023-08-24T00:32:51;36;35;
79141;PMS5003;68550;-26.480;29.234;2023-08-24T00:35:17;32;30;
79141;PMS5003;68550;-26.480;29.234;2023-08-24T00:37:42;34;33;
79141;PMS5003;68550;-26.480;29.234;2023-08-24T00:40:09;35;35;
79141;PMS5003;68550;-26.480;29.234;2023-08-24T00:42:36;39;37;
79141;PMS5003;68550;-26.480;29.234;2023-08-24T00:44:59;34;34;
79141;PMS5003;68550;-26.480;29.234;2023-08-24T00:47:25;36;36;
79141;PMS5003;68550;-26.480;29.234;2023-08-24T00:49:50;34;34;
79141;PMS5003;68550;-26.480;29.234;2023-08-24T00:52:15;37;37;
79141;PMS5003;68550;-26.480;29.234;2023-08-24T00:54:40;36;36;
79141;PMS5003;68550;-26.480;29.234;2023-08-24T00:57:06;37;36;
79141;PMS5003;68550;-26.480;29.234;2023-08-24T00:59:31;34;34;
79141;PMS5003;68550;-26.480;29.234;2023-08-24T01:01:56;35;35;
79141;PMS5003;68550;-26.480;29.234;2023-08-24T01:05:58;25;25;
79141;PMS5003;68550;-26.480;29.234;2023-08-24T01:10:52;35;34;
79141;PMS5003;68550;-26.480;29.234;2023-08-24T01:13:15;33;33;
79141;PMS5003;68550;-26.480;29.234;2023-08-24T01:15:41;39;37;
79141;PMS5003;68550;-26.480;29.234;2023-08-24T01:18:05;34;33;
79141;PMS5003;68550;-26.480;29.234;2023-08-24T01:20:30;33;33;
79141;PMS5003;68550;-26.480;29.234;2023-08-24T01:22:58;33;33;
79141;PMS5003;68550;-26.480;29.234;2023-08-24T01:25:24;34;33;
79141;PMS5003;68550;-26.480;29.234;2023-08-24T01:27:46;42;41;
79141;PMS5003;68550;-26.480;29.234;2023-08-24T01:30:11;35;33;
79141;PMS5003;68550;-26.480;29.234;2023-08-24T01:32:36;34;34;
79141;PMS5003;68550;-26.480;29.234;2023-08-24T01:35:04;34;33;
79141;PMS5003;68550;-26.480;29.234;2023-08-24T01:37:28;35;33;
79141;PMS5003;68550;-26.480;29.234;2023-08-24T01:39:54;40;38;
79141;PMS5003;68550;-26.480;29.234;2023-08-24T01:42:20;35;34;
79141;PMS5003;68550;-26.480;29.234;2023-08-24T01:44:44;35;33;
79141;PMS5003;68550;-26.480;29.234;2023-08-24T01:47:09;39;38;
79141;PMS5003;68550;-26.480;29.234;2023-08-24T01:49:34;39;38;
79141;PMS5003;68550;-26.480;29.234;2023-08-24T01:52:00;33;33;
79141;PMS5003;68550;-26.480;29.234;2023-08-24T01:54:26;35;35;
79141;PMS5003;68550;-26.480;29.234;2023-08-24T01:56:51;36;34;
79141;PMS5003;68550;-26.480;29.234;2023-08-24T01:59:17;36;35;
79141;PMS5003;68550;-26.480;29.234;2023-08-24T02:01:43;40;38;
79141;PMS5003;68550;-26.480;29.234;2023-08-24T02:04:08;37;36;
79141;PMS5003;68550;-26.480;29.234;2023-08-24T02:06:33;39;35;
79141;PMS5003;68550;-26.480;29.234;2023-08-24T02:08:59;33;32;
79141;PMS5003;68550;-26.480;29.234;2023-08-24T02:11:25;34;34;
79141;PMS5003;68550;-26.480;29.234;2023-08-24T02:13:50;39;36;
79141;PMS5003;68550;-26.480;29.234;2023-08-24T02:16:15;36;35;
79141;PMS5003;68550;-26.480;29.234;2023-08-24T02:18:41;38;38;
79141;PMS5003;68550;-26.480;29.234;2023-08-24T02:21:07;35;35;
79141;PMS5003;68550;-26.480;29.234;2023-08-24T02:23:31;33;31;
79141;PMS5003;68550;-26.480;29.234;2023-08-24T02:26:00;35;34;
79141;PMS5003;68550;-26.480;29.234;2023-08-24T02:28:25;35;34;
79141;PMS5003;68550;-26.480;29.234;2023-08-24T02:30:48;43;42;
79141;PMS5003;68550;-26.480;29.234;2023-08-24T02:33:13;37;36;
79141;PMS5003;68550;-26.480;29.234;2023-08-24T02:35:39;39;39;
79141;PMS5003;68550;-26.480;29.234;2023-08-24T02:38:05;38;37;
79141;PMS5003;68550;-26.480;29.234;2023-08-24T02:40:30;45;43;
79141;PMS5003;68550;-26.480;29.234;2023-08-24T02:42:56;36;35;
79141;PMS5003;68550;-26.480;29.234;2023-08-24T02:45:21;40;39;
79141;PMS5003;68550;-26.480;29.234;2023-08-24T02:47:47;41;41;
79141;PMS5003;68550;-26.480;29.234;2023-08-24T02:50:12;46;45;
79141;PMS5003;68550;-26.480;29.234;2023-08-24T02:52:38;47;44;
79141;PMS5003;68550;-26.480;29.234;2023-08-24T02:55:03;47;45;
79141;PMS5003;68550;-26.480;29.234;2023-08-24T02:57:29;39;39;
79141;PMS5003;68550;-26.480;29.234;2023-08-24T02:59:55;46;46;
79141;PMS5003;68550;-26.480;29.234;2023-08-24T03:02:20;43;42;
79141;PMS5003;68550;-26.480;29.234;2023-08-24T03:04:46;43;41;
79141;PMS5003;68550;-26.480;29.234;2023-08-24T03:07:12;41;38;
79141;PMS5003;68550;-26.480;29.234;2023-08-24T03:09:37;52;51;
79141;PMS5003;68550;-26.480;29.234;2023-08-24T03:12:03;50;46;
79141;PMS5003;68550;-26.480;29.234;2023-08-24T03:14:28;46;46;
79141;PMS5003;68550;-26.480;29.234;2023-08-24T03:16:54;49;47;
79141;PMS5003;68550;-26.480;29.234;2023-08-24T03:19:19;52;48;
79141;PMS5003;68550;-26.480;29.234;2023-08-24T03:21:45;49;49;
79141;PMS5003;68550;-26.480;29.234;2023-08-24T03:24:10;50;50;
79141;PMS5003;68550;-26.480;29.234;2023-08-24T03:26:36;47;47;
79141;PMS5003;68550;-26.480;29.234;2023-08-24T03:29:02;49;46;
79141;PMS5003;68550;-26.480;29.234;2023-08-24T03:31:27;47;46;
79141;PMS5003;68550;-26.480;29.234;2023-08-24T03:33:53;58;54;
79141;PMS5003;68550;-26.480;29.234;2023-08-24T03:36:18;52;49;
79141;PMS5003;68550;-26.480;29.234;2023-08-24T03:38:43;53;52;
79141;PMS5003;68550;-26.480;29.234;2023-08-24T03:41:08;52;50;
79141;PMS5003;68550;-26.480;29.234;2023-08-24T03:43:33;52;52;
79141;PMS5003;68550;-26.480;29.234;2023-08-24T03:45:58;59;56;
79141;PMS5003;68550;-26.480;29.234;2023-08-24T03:48:26;56;53;
79141;PMS5003;68550;-26.480;29.234;2023-08-24T03:50:49;58;57;
79141;PMS5003;68550;-26.480;29.234;2023-08-24T03:53:15;51;45;
79141;PMS5003;68550;-26.480;29.234;2023-08-24T03:55:40;57;56;
79141;PMS5003;68550;-26.480;29.234;2023-08-24T03:58:05;57;56;
79141;PMS5003;68550;-26.480;29.234;2023-08-24T04:00:34;53;52;
79141;PMS5003;68550;-26.480;29.234;2023-08-24T04:02:56;61;59;
79141;PMS5003;68550;-26.480;29.234;2023-08-24T04:05:22;55;52;
79141;PMS5003;68550;-26.480;29.234;2023-08-24T04:07:47;62;57;
79141;PMS5003;68550;-26.480;29.234;2023-08-24T04:10:13;55;52;
79141;PMS5003;68550;-26.480;29.234;2023-08-24T04:12:38;57;53;
79141;PMS5003;68550;-26.480;29.234;2023-08-24T04:15:04;54;51;
79141;PMS5003;68550;-26.480;29.234;2023-08-24T04:17:29;58;52;
79141;PMS5003;68550;-26.480;29.234;2023-08-24T04:19:54;56;54;
79141;PMS5003;68550;-26.480;29.234;2023-08-24T04:22:19;53;53;
79141;PMS5003;68550;-26.480;29.234;2023-08-24T04:24:45;60;55;
79141;PMS5003;68550;-26.480;29.234;2023-08-24T04:27:13;56;53;
79141;PMS5003;68550;-26.480;29.234;2023-08-24T04:29:36;89;84;
79141;PMS5003;68550;-26.480;29.234;2023-08-24T04:32:02;65;64;
79141;PMS5003;68550;-26.480;29.234;2023-08-24T04:34:27;74;69;
79141;PMS5003;68550;-26.480;29.234;2023-08-24T04:36:56;64;60;
79141;PMS5003;68550;-26.480;29.234;2023-08-24T04:39:18;70;65;
79141;PMS5003;68550;-26.480;29.234;2023-08-24T04:41:44;78;72;
79141;PMS5003;68550;-26.480;29.234;2023-08-24T04:44:09;64;58;
79141;PMS5003;68550;-26.480;29.234;2023-08-24T04:46:34;67;65;
79141;PMS5003;68550;-26.480;29.234;2023-08-24T04:48:59;62;60;
79141;PMS5003;68550;-26.480;29.234;2023-08-24T04:51:25;59;59;
79141;PMS5003;68550;-26.480;29.234;2023-08-24T04:53:51;62;61;
79141;PMS5003;68550;-26.480;29.234;2023-08-24T04:56:17;62;61;
79141;PMS5003;68550;-26.480;29.234;2023-08-24T05:01:07;76;72;
79141;PMS5003;68550;-26.480;29.234;2023-08-24T05:03:35;74;71;
79141;PMS5003;68550;-26.480;29.234;2023-08-24T05:05:58;65;63;
79141;PMS5003;68550;-26.480;29.234;2023-08-24T05:08:24;62;60;
79141;PMS5003;68550;-26.480;29.234;2023-08-24T05:10:50;73;69;
79141;PMS5003;68550;-26.480;29.234;2023-08-24T05:13:15;68;66;
79141;PMS5003;68550;-26.480;29.234;2023-08-24T05:15:41;66;66;
79141;PMS5003;68550;-26.480;29.234;2023-08-24T05:18:06;70;66;
79141;PMS5003;68550;-26.480;29.234;2023-08-24T05:20:32;61;59;
79141;PMS5003;68550;-26.480;29.234;2023-08-24T05:22:57;68;66;
79141;PMS5003;68550;-26.480;29.234;2023-08-24T05:25:22;59;57;
79141;PMS5003;68550;-26.480;29.234;2023-08-24T05:27:47;65;64;
79141;PMS5003;68550;-26.480;29.234;2023-08-24T05:30:13;63;60;
79141;PMS5003;68550;-26.480;29.234;2023-08-24T05:32:38;70;64;
79141;PMS5003;68550;-26.480;29.234;2023-08-24T05:35:04;68;66;
79141;PMS5003;68550;-26.480;29.234;2023-08-24T05:37:29;60;58;
79141;PMS5003;68550;-26.480;29.234;2023-08-24T05:39:54;73;68;
79141;PMS5003;68550;-26.480;29.234;2023-08-24T05:42:20;62;60;
79141;PMS5003;68550;-26.480;29.234;2023-08-24T05:44:45;61;57;
79141;PMS5003;68550;-26.480;29.234;2023-08-24T05:47:11;57;55;
79141;PMS5003;68550;-26.480;29.234;2023-08-24T05:49:36;63;61;
79141;PMS5003;68550;-26.480;29.234;2023-08-24T05:52:02;61;61;
79141;PMS5003;68550;-26.480;29.234;2023-08-24T05:54:28;66;63;
79141;PMS5003;68550;-26.480;29.234;2023-08-24T05:56:53;59;59;
79141;PMS5003;68550;-26.480;29.234;2023-08-24T05:59:19;60;58;
79141;PMS5003;68550;-26.480;29.234;2023-08-24T06:01:43;59;57;
79141;PMS5003;68550;-26.480;29.234;2023-08-24T06:04:09;57;55;
79141;PMS5003;68550;-26.480;29.234;2023-08-24T06:06:34;59;58;
79141;PMS5003;68550;-26.480;29.234;2023-08-24T06:08:59;57;55;
79141;PMS5003;68550;-26.480;29.234;2023-08-24T06:11:24;64;62;
79141;PMS5003;68550;-26.480;29.234;2023-08-24T06:13:49;66;64;
79141;PMS5003;68550;-26.480;29.234;2023-08-24T06:16:15;54;53;
79141;PMS5003;68550;-26.480;29.234;2023-08-24T06:18:41;58;53;
79141;PMS5003;68550;-26.480;29.234;2023-08-24T06:21:06;66;64;
79141;PMS5003;68550;-26.480;29.234;2023-08-24T06:23:33;66;63;
79141;PMS5003;68550;-26.480;29.234;2023-08-24T06:25:58;60;57;
79141;PMS5003;68550;-26.480;29.234;2023-08-24T06:28:22;58;57;
79141;PMS5003;68550;-26.480;29.234;2023-08-24T06:30:48;65;63;
79141;PMS5003;68550;-26.480;29.234;2023-08-24T06:33:17;59;57;
79141;PMS5003;68550;-26.480;29.234;2023-08-24T06:35:40;61;60;
79141;PMS5003;68550;-26.480;29.234;2023-08-24T06:38:05;61;58;
79141;PMS5003;68550;-26.480;29.234;2023-08-24T06:40:31;56;54;
79141;PMS5003;68550;-26.480;29.234;2023-08-24T06:42:56;60;54;
79141;PMS5003;68550;-26.480;29.234;2023-08-24T06:45:22;58;56;
79141;PMS5003;68550;-26.480;29.234;2023-08-24T06:47:47;52;50;
79141;PMS5003;68550;-26.480;29.234;2023-08-24T06:50:14;59;56;
79141;PMS5003;68550;-26.480;29.234;2023-08-24T06:52:38;57;55;
79141;PMS5003;68550;-26.480;29.234;2023-08-24T06:55:04;57;54;
79141;PMS5003;68550;-26.480;29.234;2023-08-24T06:57:29;54;52;
79141;PMS5003;68550;-26.480;29.234;2023-08-24T06:59:54;54;52;
79141;PMS5003;68550;-26.480;29.234;2023-08-24T07:02:20;58;54;
79141;PMS5003;68550;-26.480;29.234;2023-08-24T07:04:46;61;58;
79141;PMS5003;68550;-26.480;29.234;2023-08-24T07:07:12;51;50;
79141;PMS5003;68550;-26.480;29.234;2023-08-24T07:09:37;55;54;
79141;PMS5003;68550;-26.480;29.234;2023-08-24T07:12:03;54;52;
79141;PMS5003;68550;-26.480;29.234;2023-08-24T07:14:27;56;53;
79141;PMS5003;68550;-26.480;29.234;2023-08-24T07:16:52;53;52;
79141;PMS5003;68550;-26.480;29.234;2023-08-24T07:19:18;60;56;
79141;PMS5003;68550;-26.480;29.234;2023-08-24T07:21:43;46;45;
79141;PMS5003;68550;-26.480;29.234;2023-08-24T07:24:09;54;52;
79141;PMS5003;68550;-26.480;29.234;2023-08-24T07:26:34;55;51;
79141;PMS5003;68550;-26.480;29.234;2023-08-24T07:28:59;57;57;
79141;PMS5003;68550;-26.480;29.234;2023-08-24T07:31:25;48;47;
79141;PMS5003;68550;-26.480;29.234;2023-08-24T07:33:50;55;54;
79141;PMS5003;68550;-26.480;29.234;2023-08-24T07:36:16;56;56;
79141;PMS5003;68550;-26.480;29.234;2023-08-24T07:38:41;51;49;
79141;PMS5003;68550;-26.480;29.234;2023-08-24T07:41:07;54;53;
79141;PMS5003;68550;-26.480;29.234;2023-08-24T07:43:32;51;51;
79141;PMS5003;68550;-26.480;29.234;2023-08-24T07:45:58;55;54;
79141;PMS5003;68550;-26.480;29.234;2023-08-24T07:48:24;55;54;
79141;PMS5003;68550;-26.480;29.234;2023-08-24T07:50:50;56;55;
79141;PMS5003;68550;-26.480;29.234;2023-08-24T07:53:14;53;50;
79141;PMS5003;68550;-26.480;29.234;2023-08-24T07:55:40;54;53;
79141;PMS5003;68550;-26.480;29.234;2023-08-24T07:58:05;50;50;
79141;PMS5003;68550;-26.480;29.234;2023-08-24T08:00:31;56;56;
79141;PMS5003;68550;-26.480;29.234;2023-08-24T08:02:56;50;49;
79141;PMS5003;68550;-26.480;29.234;2023-08-24T08:05:22;48;47;
79141;PMS5003;68550;-26.480;29.234;2023-08-24T08:07:47;62;60;
79141;PMS5003;68550;-26.480;29.234;2023-08-24T08:10:12;60;58;
79141;PMS5003;68550;-26.480;29.234;2023-08-24T08:12:38;56;55;
79141;PMS5003;68550;-26.480;29.234;2023-08-24T08:15:03;52;51;
79141;PMS5003;68550;-26.480;29.234;2023-08-24T08:17:29;58;54;
79141;PMS5003;68550;-26.480;29.234;2023-08-24T08:19:54;53;52;
79141;PMS5003;68550;-26.480;29.234;2023-08-24T08:22:23;55;54;
79141;PMS5003;68550;-26.480;29.234;2023-08-24T08:24:46;57;55;
79141;PMS5003;68550;-26.480;29.234;2023-08-24T08:27:11;56;54;
79141;PMS5003;68550;-26.480;29.234;2023-08-24T08:29:36;52;51;
79141;PMS5003;68550;-26.480;29.234;2023-08-24T08:32:01;56;52;
79141;PMS5003;68550;-26.480;29.234;2023-08-24T08:34:27;56;55;
79141;PMS5003;68550;-26.480;29.234;2023-08-24T08:36:52;52;52;
79141;PMS5003;68550;-26.480;29.234;2023-08-24T08:39:18;57;56;
79141;PMS5003;68550;-26.480;29.234;2023-08-24T08:41:43;50;48;
79141;PMS5003;68550;-26.480;29.234;2023-08-24T08:44:09;52;48;
79141;PMS5003;68550;-26.480;29.234;2023-08-24T08:46:33;53;51;
79141;PMS5003;68550;-26.480;29.234;2023-08-24T08:48:59;55;53;
79141;PMS5003;68550;-26.480;29.234;2023-08-24T08:51:24;54;53;
79141;PMS5003;68550;-26.480;29.234;2023-08-24T08:53:49;59;56;
79141;PMS5003;68550;-26.480;29.234;2023-08-24T08:56:14;56;53;
79141;PMS5003;68550;-26.480;29.234;2023-08-24T08:58:40;60;58;
79141;PMS5003;68550;-26.480;29.234;2023-08-24T09:01:05;62;61;
79141;PMS5003;68550;-26.480;29.234;2023-08-24T09:03:30;38;38;
79141;PMS5003;68550;-26.480;29.234;2023-08-24T09:05:57;57;56;
79141;PMS5003;68550;-26.480;29.234;2023-08-24T09:08:21;56;55;
79141;PMS5003;68550;-26.480;29.234;2023-08-24T09:10:47;57;55;
79141;PMS5003;68550;-26.480;29.234;2023-08-24T09:13:14;56;55;
79141;PMS5003;68550;-26.480;29.234;2023-08-24T09:15:38;53;51;
79141;PMS5003;68550;-26.480;29.234;2023-08-24T09:18:04;60;58;
79141;PMS5003;68550;-26.480;29.234;2023-08-24T09:20:30;53;53;
79141;PMS5003;68550;-26.480;29.234;2023-08-24T09:22:56;63;61;
79141;PMS5003;68550;-26.480;29.234;2023-08-24T09:25:21;65;62;
79141;PMS5003;68550;-26.480;29.234;2023-08-24T09:27:48;67;66;
79141;PMS5003;68550;-26.480;29.234;2023-08-24T09:30:12;58;57;
79141;PMS5003;68550;-26.480;29.234;2023-08-24T09:32:37;58;56;
79141;PMS5003;68550;-26.480;29.234;2023-08-24T09:35:02;56;54;
79141;PMS5003;68550;-26.480;29.234;2023-08-24T09:37:31;60;60;
79141;PMS5003;68550;-26.480;29.234;2023-08-24T09:40:00;62;60;
79141;PMS5003;68550;-26.480;29.234;2023-08-24T09:42:21;59;58;
79141;PMS5003;68550;-26.480;29.234;2023-08-24T09:44:44;62;61;
79141;PMS5003;68550;-26.480;29.234;2023-08-24T09:47:10;58;57;
79141;PMS5003;68550;-26.480;29.234;2023-08-24T09:49:35;57;57;
79141;PMS5003;68550;-26.480;29.234;2023-08-24T09:52:00;65;64;
79141;PMS5003;68550;-26.480;29.234;2023-08-24T09:54:28;57;54;
79141;PMS5003;68550;-26.480;29.234;2023-08-24T09:56:54;62;60;
79141;PMS5003;68550;-26.480;29.234;2023-08-24T09:59:17;66;65;
79141;PMS5003;68550;-26.480;29.234;2023-08-24T10:01:43;67;66;
79141;PMS5003;68550;-26.480;29.234;2023-08-24T10:04:07;70;69;
79141;PMS5003;68550;-26.480;29.234;2023-08-24T10:06:33;71;69;
79141;PMS5003;68550;-26.480;29.234;2023-08-24T10:09:01;63;62;
79141;PMS5003;68550;-26.480;29.234;2023-08-24T10:11:25;64;64;
79141;PMS5003;68550;-26.480;29.234;2023-08-24T10:13:50;70;70;
79141;PMS5003;68550;-26.480;29.234;2023-08-24T10:16:14;75;73;
79141;PMS5003;68550;-26.480;29.234;2023-08-24T10:18:40;68;68;
79141;PMS5003;68550;-26.480;29.234;2023-08-24T10:21:05;70;67;
79141;PMS5003;68550;-26.480;29.234;2023-08-24T10:23:30;76;73;
79141;PMS5003;68550;-26.480;29.234;2023-08-24T10:25:56;81;78;
79141;PMS5003;68550;-26.480;29.234;2023-08-24T10:28:23;75;74;
79141;PMS5003;68550;-26.480;29.234;2023-08-24T10:30:47;81;79;
79141;PMS5003;68550;-26.480;29.234;2023-08-24T10:33:13;75;73;
79141;PMS5003;68550;-26.480;29.234;2023-08-24T10:35:40;76;75;
79141;PMS5003;68550;-26.480;29.234;2023-08-24T10:38:03;72;72;
79141;PMS5003;68550;-26.480;29.234;2023-08-24T10:40:33;84;80;
79141;PMS5003;68550;-26.480;29.234;2023-08-24T10:42:54;80;80;
79141;PMS5003;68550;-26.480;29.234;2023-08-24T10:45:20;83;81;
79141;PMS5003;68550;-26.480;29.234;2023-08-24T10:47:46;82;79;
79141;PMS5003;68550;-26.480;29.234;2023-08-24T10:50:11;88;85;
79141;PMS5003;68550;-26.480;29.234;2023-08-24T10:52:37;79;77;
79141;PMS5003;68550;-26.480;29.234;2023-08-24T10:55:03;84;78;
79141;PMS5003;68550;-26.480;29.234;2023-08-24T10:57:35;81;80;
79141;PMS5003;68550;-26.480;29.234;2023-08-24T10:59:59;80;79;
79141;PMS5003;68550;-26.480;29.234;2023-08-24T11:02:19;73;72;
79141;PMS5003;68550;-26.480;29.234;2023-08-24T11:07:09;78;78;
79141;PMS5003;68550;-26.480;29.234;2023-08-24T11:12:01;76;74;
79141;PMS5003;68550;-26.480;29.234;2023-08-24T11:14:25;78;73;
79141;PMS5003;68550;-26.480;29.234;2023-08-24T11:16:51;79;76;
79141;PMS5003;68550;-26.480;29.234;2023-08-24T11:19:17;80;77;
79141;PMS5003;68550;-26.480;29.234;2023-08-24T11:21:42;83;82;
79141;PMS5003;68550;-26.480;29.234;2023-08-24T11:24:09;77;75;
79141;PMS5003;68550;-26.480;29.234;2023-08-24T11:26:34;88;84;
79141;PMS5003;68550;-26.480;29.234;2023-08-24T11:28:59;79;76;
79141;PMS5003;68550;-26.480;29.234;2023-08-24T11:31:25;79;77;
79141;PMS5003;68550;-26.480;29.234;2023-08-24T11:33:53;74;72;
79141;PMS5003;68550;-26.480;29.234;2023-08-24T11:36:15;76;75;
79141;PMS5003;68550;-26.480;29.234;2023-08-24T11:38:41;79;79;
79141;PMS5003;68550;-26.480;29.234;2023-08-24T11:43:31;83;80;
79141;PMS5003;68550;-26.480;29.234;2023-08-24T11:45:56;88;84;
79141;PMS5003;68550;-26.480;29.234;2023-08-24T11:48:24;83;82;
79141;PMS5003;68550;-26.480;29.234;2023-08-24T11:50:47;76;75;
79141;PMS5003;68550;-26.480;29.234;2023-08-24T11:53:16;86;82;
79141;PMS5003;68550;-26.480;29.234;2023-08-24T11:55:39;79;76;
79141;PMS5003;68550;-26.480;29.234;2023-08-24T11:58:04;85;83;
79141;PMS5003;68550;-26.480;29.234;2023-08-24T12:00:29;81;79;
79141;PMS5003;68550;-26.480;29.234;2023-08-24T12:02:54;88;85;
79141;PMS5003;68550;-26.480;29.234;2023-08-24T12:05:21;78;74;
79141;PMS5003;68550;-26.480;29.234;2023-08-24T12:07:45;86;79;
79141;PMS5003;68550;-26.480;29.234;2023-08-24T12:10:11;81;80;
79141;PMS5003;68550;-26.480;29.234;2023-08-24T12:12:36;87;86;
79141;PMS5003;68550;-26.480;29.234;2023-08-24T12:15:02;89;86;
79141;PMS5003;68550;-26.480;29.234;2023-08-24T12:17:29;81;80;
79141;PMS5003;68550;-26.480;29.234;2023-08-24T12:19:57;87;82;
79141;PMS5003;68550;-26.480;29.234;2023-08-24T12:22:19;80;79;
79141;PMS5003;68550;-26.480;29.234;2023-08-24T12:24:43;79;78;
79141;PMS5003;68550;-26.480;29.234;2023-08-24T12:29:33;71;68;
79141;PMS5003;68550;-26.480;29.234;2023-08-24T12:31:59;81;80;
79141;PMS5003;68550;-26.480;29.234;2023-08-24T12:34:24;76;74;
79141;PMS5003;68550;-26.480;29.234;2023-08-24T12:36:51;80;79;
79141;PMS5003;68550;-26.480;29.234;2023-08-24T12:39:15;77;74;
79141;PMS5003;68550;-26.480;29.234;2023-08-24T12:41:41;86;83;
79141;PMS5003;68550;-26.480;29.234;2023-08-24T12:44:07;83;80;
79141;PMS5003;68550;-26.480;29.234;2023-08-24T12:46:32;75;75;
79141;PMS5003;68550;-26.480;29.234;2023-08-24T12:48:58;77;75;
79141;PMS5003;68550;-26.480;29.234;2023-08-24T12:51:23;78;77;
79141;PMS5003;68550;-26.480;29.234;2023-08-24T12:53:48;75;74;
79141;PMS5003;68550;-26.480;29.234;2023-08-24T12:56:13;75;74;
79141;PMS5003;68550;-26.480;29.234;2023-08-24T12:58:43;84;82;
79141;PMS5003;68550;-26.480;29.234;2023-08-24T13:01:04;81;78;
79141;PMS5003;68550;-26.480;29.234;2023-08-24T13:03:30;90;81;
79141;PMS5003;68550;-26.480;29.234;2023-08-24T13:05:55;88;81;
79141;PMS5003;68550;-26.480;29.234;2023-08-24T13:08:21;79;78;
79141;PMS5003;68550;-26.480;29.234;2023-08-24T13:10:47;86;84;
79141;PMS5003;68550;-26.480;29.234;2023-08-24T13:13:12;82;81;
79141;PMS5003;68550;-26.480;29.234;2023-08-24T13:15:38;79;76;
79141;PMS5003;68550;-26.480;29.234;2023-08-24T13:18:03;74;74;
79141;PMS5003;68550;-26.480;29.234;2023-08-24T13:20:28;76;74;
79141;PMS5003;68550;-26.480;29.234;2023-08-24T13:22:54;78;74;
79141;PMS5003;68550;-26.480;29.234;2023-08-24T13:25:19;76;75;
79141;PMS5003;68550;-26.480;29.234;2023-08-24T13:27:46;78;77;
79141;PMS5003;68550;-26.480;29.234;2023-08-24T13:30:11;81;78;
79141;PMS5003;68550;-26.480;29.234;2023-08-24T13:32:37;79;76;
79141;PMS5003;68550;-26.480;29.234;2023-08-24T13:35:01;72;71;
79141;PMS5003;68550;-26.480;29.234;2023-08-24T13:37:26;75;74;
79141;PMS5003;68550;-26.480;29.234;2023-08-24T13:39:54;81;80;
79141;PMS5003;68550;-26.480;29.234;2023-08-24T13:42:17;74;68;
79141;PMS5003;68550;-26.480;29.234;2023-08-24T13:44:42;75;75;
79141;PMS5003;68550;-26.480;29.234;2023-08-24T13:47:07;78;74;
79141;PMS5003;68550;-26.480;29.234;2023-08-24T13:49:33;71;70;
79141;PMS5003;68550;-26.480;29.234;2023-08-24T13:51:58;76;74;
79141;PMS5003;68550;-26.480;29.234;2023-08-24T13:54:23;73;73;
79141;PMS5003;68550;-26.480;29.234;2023-08-24T13:56:49;73;72;
79141;PMS5003;68550;-26.480;29.234;2023-08-24T13:59:14;71;69;
79141;PMS5003;68550;-26.480;29.234;2023-08-24T14:01:39;77;75;
79141;PMS5003;68550;-26.480;29.234;2023-08-24T14:04:06;68;67;
79141;PMS5003;68550;-26.480;29.234;2023-08-24T14:06:31;74;71;
79141;PMS5003;68550;-26.480;29.234;2023-08-24T14:08:56;70;66;
79141;PMS5003;68550;-26.480;29.234;2023-08-24T14:11:21;71;68;
79141;PMS5003;68550;-26.480;29.234;2023-08-24T14:13:48;70;68;
79141;PMS5003;68550;-26.480;29.234;2023-08-24T14:16:14;72;71;
79141;PMS5003;68550;-26.480;29.234;2023-08-24T14:18:38;70;69;
79141;PMS5003;68550;-26.480;29.234;2023-08-24T14:21:02;67;66;
79141;PMS5003;68550;-26.480;29.234;2023-08-24T14:23:28;71;70;
79141;PMS5003;68550;-26.480;29.234;2023-08-24T14:25:53;68;67;
79141;PMS5003;68550;-26.480;29.234;2023-08-24T14:28:20;68;65;
79141;PMS5003;68550;-26.480;29.234;2023-08-24T14:30:45;68;67;
79141;PMS5003;68550;-26.480;29.234;2023-08-24T14:33:11;59;56;
79141;PMS5003;68550;-26.480;29.234;2023-08-24T14:35:36;66;64;
79141;PMS5003;68550;-26.480;29.234;2023-08-24T14:38:01;69;66;
79141;PMS5003;68550;-26.480;29.234;2023-08-24T14:40:26;62;61;
79141;PMS5003;68550;-26.480;29.234;2023-08-24T14:42:52;64;63;
79141;PMS5003;68550;-26.480;29.234;2023-08-24T14:45:17;72;69;
79141;PMS5003;68550;-26.480;29.234;2023-08-24T14:47:43;65;63;
79141;PMS5003;68550;-26.480;29.234;2023-08-24T14:50:09;60;59;
79141;PMS5003;68550;-26.480;29.234;2023-08-24T14:52:34;67;65;
79141;PMS5003;68550;-26.480;29.234;2023-08-24T14:54:59;58;58;
79141;PMS5003;68550;-26.480;29.234;2023-08-24T14:57:24;60;59;
79141;PMS5003;68550;-26.480;29.234;2023-08-24T14:59:50;55;55;
79141;PMS5003;68550;-26.480;29.234;2023-08-24T15:09:13;66;64;
79141;PMS5003;68550;-26.480;29.234;2023-08-24T15:11:38;64;63;
79141;PMS5003;68550;-26.480;29.234;2023-08-24T15:14:03;62;61;
79141;PMS5003;68550;-26.480;29.234;2023-08-24T15:18:54;65;64;
79141;PMS5003;68550;-26.480;29.234;2023-08-24T15:21:19;68;65;
79141;PMS5003;68550;-26.480;29.234;2023-08-24T15:23:45;61;60;
79141;PMS5003;68550;-26.480;29.234;2023-08-24T15:26:10;70;69;
79141;PMS5003;68550;-26.480;29.234;2023-08-24T15:28:36;57;55;
79141;PMS5003;68550;-26.480;29.234;2023-08-24T15:31:04;63;61;
79141;PMS5003;68550;-26.480;29.234;2023-08-24T15:33:26;58;55;
79141;PMS5003;68550;-26.480;29.234;2023-08-24T15:40:43;54;53;
79141;PMS5003;68550;-26.480;29.234;2023-08-24T15:43:09;66;64;
79141;PMS5003;68550;-26.480;29.234;2023-08-24T16:07:23;60;58;
79141;PMS5003;68550;-26.480;29.234;2023-08-24T16:09:48;62;61;
79141;PMS5003;68550;-26.480;29.234;2023-08-24T16:14:38;70;67;
79141;PMS5003;68550;-26.480;29.234;2023-08-24T16:17:03;62;61;
79141;PMS5003;68550;-26.480;29.234;2023-08-24T16:19:30;70;68;
79141;PMS5003;68550;-26.480;29.234;2023-08-24T16:21:54;68;67;
79141;PMS5003;68550;-26.480;29.234;2023-08-24T16:24:19;65;62;
79141;PMS5003;68550;-26.480;29.234;2023-08-24T16:36:26;65;65;
79141;PMS5003;68550;-26.480;29.234;2023-08-24T16:53:25;62;61;